« 曇天 百里飛行場 2017/11/27 mon | トップページ | ### RJNT log 201711 ### »

2017/11/29

去来1 成田国際空港 2017/10/30 mon

今更アップなのですが、成田3連荘で大△最終日も展開してしまいました。この日は台風一過。前日の土砂降りから一転青空が広がっていますが、吹き返しが激しく、強力な北西の風が吹いています。楽しみ。
RJAA 300400Z 31023G38KT 9999 FEW030 17/M01 Q1006 WS R34L TEMPO 32035G48KT

20171030_rjaa_100ja605f

ANA8468 ZQSD-RJAA JA605F B767-316FER

20171030_rjaa_101xa6bld

ETD871 OMAA-RJAA A6-BLD B787-9

20171030_rjaa_102ohlwc

20171030_rjaa_103ohlwc
FIN74 RJAA-EFHK OH-LWC A350-941

20171030_rjaa_104ja615a

ANA954 ZHHH-RJAA JA615A B767-381ER

20171030_rjaa_105ja93cp

JA93CP BK117C-2 千葉県警察
RJAA 300422Z 32031G48KT 9999 FEW030 17/M01 Q1007 WS R34L RMK 1CU030 A2974 WS PS MS 20KT OBS AT 0415Z ON DEP COURSE RWY34L BLW 4000FT IN CMB A359

20171030_rjaa_106x9vswy

SIA11 KLAX-RJAA 9V-SWY B777-312ER

20171030_rjaa_107ja04gr

IOJ701 RJAA-RJFS JA04GR B737-8AL

20171030_rjaa_108b1966

CXA809 ZSFZ-RJAA B-1966 B737-85C

20171030_rjaa_109rpc8618

PAL434 RPVM-RJAA RP-C8618 A320-214

20171030_rjaa_110rpc9907

PAL427 RJAA-RPLL RP-C9907 A321-231
RJAA 300430Z 32032G47KT 9999 FEW030 17/M00 Q1007 NOSIG RMK 1CU030 A2975

20171030_rjaa_111apbhx

PIA852 ZBAA-RJAA AP-BMH B777-2Q8ER

20171030_rjaa_112b5918

CCA929 ZSPD-RJAA B-5918 A330-243

20171030_rjaa_113hl8050

JJA1154 RKPK-RJAA HL8050 B737-8AS

20171030_rjaa_114b18210

CAL100 RCTP-RJAA B-18210 B747-409

20171030_rjaa_115ja16jj

JJP113 RJAA-RJCC JA16JJ A320-232

20171030_rjaa_116b6505_2

CCA925 ZBAA-RJAA B-6505 A330-243

20171030_rjaa_117fosun

THT78 NTAA-RJAA F-OSUN A340-313

20171030_rjaa_118hl7640

20171030_rjaa_119hl7640
AAR101 RJAA-RKSI HL7640 A380-841

20171030_rjaa_120hl7640

この機体でも、おおきく煽られています。

20171030_rjaa_121ja12va

VNL908 RJAA-RJCC JA12VA A320-214

20171030_rjaa_122ja02va

VNL825 RJAA-RJKA JA02VA A320-214

20171030_rjaa_123ja303j

JAL954 RKSI-RJAA JA303J B737-846

20171030_rjaa_124ja622a

ANA922 ZSPD-RJAA JA622A B767-381ER

20171030_rjaa_125b1476

CSZ9052A RJAA-ZGSZ B-1476 B737-87L

20171030_rjaa_126ja622a

おやおや34RでG/A

20171030_rjaa_127ja07va

VNL913 RJAA-RJCC JA07VA A320-214

20171030_rjaa_128ja805a

ANA959 RJAA-ZSPD JA805A B787-8

20171030_rjaa_129bhnk

CPA504 VHHH-RJAA B-HNK B777-367
RJAA 300500Z 31028G49KT 9999 FEW030 17/M02 Q1008 WS R34L WS R34R NOSIG

29161030_rjaa_130hl8070

TWB212 RJAA-RKTN HL8070 B737-8AS

29161030_rjaa_131ja12kz

29161030_rjaa_132ja12kz

NCA109 KSFO-RJAA JA12KZ B747-8KZF

29161030_rjaa_133ja622a

ANA922 再アプローチ 無事着陸しました。

29161030_rjaa_134ja837a

ANA802 WSSS-RJAA JA837A B787-9

29161030_rjaa_135ju1015

MGL501 ZMUB-RJAA JU-1015 B737-8SH

29161030_rjaa_136eidsu

AZA785 RJAA-LIRF I-DISU B777-243ER

29161030_rjaa_137ja611j

JAL802 RCTP-RJAA JA611J B767-346ER

29161030_rjaa_138n786an

AAL175 KDFW-RJAA N786AN B777-223ER

29161030_rjaa_139n792ua

UAL903 PHNL-RJAA N792UA B777-222ER

29161030_rjaa_140b5960

CSC808U ZUUU-RJAA B-5960 A330-343

29161030_rjaa_141blnt

CRK608 VHHH-RJAA B-LNT A330-343

29161030_rjaa_142n155dl

DAL166 WSSS-RJAA N155DL B767-3P6ER

29161030_rjaa_143n2341u

UAL79 KEWR-RJAA N2341U B777-322ER

29161030_rjaa_144hl7461

29161030_rjaa_145hl7461

KAL704 RJAA-RKSI HL7461 B747-4B5

29161030_rjaa_146ja619a

ANA824 RCTP-RJAA JA619A B767-381ER

29161030_rjaa_147b16335

EVA197 RJAA-RCTP B-16335 A330-302
RJAA 300530Z 32026G38KT 9999 FEW030 16/M01 Q1009 WS R34L WS R34R NOSIG

29161030_rjaa_148ja835a

ANA820 RPLL-RJAA JA835A B787-8

29161030_rjaa_149ja865j

JAL408 EDDF-RJAA JA865J B787-9 G/A

29161030_rjaa_150ja865j

29161030_rjaa_151ja865j

レフトターンして、再アプローチへ

29161030_rjaa_152ja626a

ANA956 ZBAA-RJAA JA626A B767-381ER

29161030_rjaa_153n2737u

UAL837 KSFO-RJAA N2737U B777-322ER

29161030_rjaa_154ja608j

JAL746 RPLL-RJAA JA608J B767-346ER

29161030_rjaa_155ja15kz

NCA85 EHAM-RJAA JA15KZ B747-8KZF

29161030_rjaa_156ja623a

ANA934 ZGGG-RJAA JA623A B767-381ER

29161030_rjaa_157n650vc

N650VC G-VI(G650ER)

29161030_rjaa_158hl8090

JJA1105 RJAA-RKSI HL8090 B737-8AS

29161030_rjaa_159sugdp

MSR965 RJAA-HECA SU-GDP B777-36NER

29161030_rjaa_159zsugdp

長らく運休していたのが、この日から週一で運行再開です。

29161030_rjaa_160ja807a

ANA806 VTBS-RJAA JA807A B787-8

29161030_rjaa_161n180dn

DAL181 PHNL-RJAA N180DN B767-332ER

29161030_rjaa_162ja865j

JAL408 EDDF-RJAA JA865J B787-9  無事着陸

29161030_rjaa_163vpcbe

VP-CBE VHHH-RJAA A330-202

29161030_rjaa_164ja871a

ANA183 PHNL-RJAA JA871A B787-9

29161030_rjaa_165ja612a

ANA812 VHHH-RJAA JA612A B767-381ER

29161030_rjaa_166n154dl

DAL180 RPLL-RJAA N154DL B767-3P6ER

29161030_rjaa_167ja733a_2

ANA1 KIAD-RJAA JA733A B777-381ER

29161030_rjaa_168ja616a

ANA834 VVTS-RJAA JA616A B767-381ER

29161030_rjaa_169ja14jj

JJP204 RJBB-RJAA JA14JJ A320-232
RJAA 300600Z 31021G36KT 9999 FEW030 16/M01 Q1009 WS R34L WS R34R TEMPO 32034G45KT
その2へつづく・・・

|

« 曇天 百里飛行場 2017/11/27 mon | トップページ | ### RJNT log 201711 ### »

成田国際空港」カテゴリの記事

コメント

コメントを書く



(ウェブ上には掲載しません)


コメントは記事投稿者が公開するまで表示されません。



トラックバック


この記事へのトラックバック一覧です: 去来1 成田国際空港 2017/10/30 mon:

« 曇天 百里飛行場 2017/11/27 mon | トップページ | ### RJNT log 201711 ### »